SWR49K EKCH-LSZH
Flight info
| Callsign | SWR49K |
|---|---|
| Flight time | N/A |
| Altitude | 36000 |
| Route | NEXEN T503 GIMRU DCT MICOS DCT TOLGI DCT SWALM DCT OMOGI/N0430F370 T721 RILAX |
| Aircraft | A320/M-SDE3FGHIRWY/LB1 |
Departure
| Time | N/A |
|---|---|
| Airport | Copenhagen Kastrup Airport (EKCH) |
Arrival
| Time | 2026-04-30 20:19 |
|---|---|
| Airport | Zürich Airport (LSZH) |
| Time | Latitude | Longitude | Altitude | Speed | Heading |
|---|---|---|---|---|---|
| 2026-04-30 19:35 | 51.52893 | 9.60349 | 36432 ft | 455 kts | 197° |
| 2026-04-30 19:36 | 51.42867 | 9.55331 | 36442 ft | 455 kts | 195° |
| 2026-04-30 19:36 | 51.33790 | 9.50896 | 36441 ft | 455 kts | 196° |
| 2026-04-30 19:37 | 51.27738 | 9.47897 | 36429 ft | 455 kts | 196° |
| 2026-04-30 19:37 | 51.21690 | 9.44898 | 36424 ft | 455 kts | 196° |
| 2026-04-30 19:38 | 51.15642 | 9.41917 | 36423 ft | 455 kts | 195° |
| 2026-04-30 19:38 | 51.09589 | 9.38955 | 36413 ft | 455 kts | 195° |
| 2026-04-30 19:39 | 51.03535 | 9.35992 | 36399 ft | 455 kts | 195° |
| 2026-04-30 19:39 | 50.97482 | 9.33031 | 36400 ft | 455 kts | 195° |
| 2026-04-30 19:40 | 50.91421 | 9.30077 | 36396 ft | 456 kts | 195° |
| 2026-04-30 19:40 | 50.85356 | 9.27139 | 36398 ft | 456 kts | 195° |
| 2026-04-30 19:41 | 50.79284 | 9.24210 | 36400 ft | 456 kts | 195° |
| 2026-04-30 19:41 | 50.73212 | 9.21282 | 36395 ft | 456 kts | 194° |
| 2026-04-30 19:42 | 50.66992 | 9.19558 | 36394 ft | 454 kts | 185° |
| 2026-04-30 19:42 | 50.60731 | 9.18265 | 36389 ft | 454 kts | 185° |
| 2026-04-30 19:43 | 50.54472 | 9.16977 | 36389 ft | 454 kts | 185° |
| 2026-04-30 19:44 | 50.45069 | 9.15034 | 36389 ft | 455 kts | 185° |
| 2026-04-30 19:44 | 50.38795 | 9.13744 | 36388 ft | 455 kts | 185° |
| 2026-04-30 19:45 | 50.32512 | 9.12456 | 36381 ft | 455 kts | 185° |
| 2026-04-30 19:45 | 50.26236 | 9.11164 | 36386 ft | 455 kts | 185° |
| 2026-04-30 19:46 | 50.19959 | 9.09872 | 36373 ft | 455 kts | 185° |
| 2026-04-30 19:46 | 50.13672 | 9.08590 | 36371 ft | 456 kts | 185° |
| 2026-04-30 19:47 | 50.07375 | 9.07324 | 36370 ft | 456 kts | 185° |
| 2026-04-30 19:47 | 50.01122 | 9.06055 | 36365 ft | 456 kts | 185° |
| 2026-04-30 19:48 | 49.94792 | 9.04773 | 36362 ft | 456 kts | 185° |
| 2026-04-30 19:48 | 49.88542 | 9.03517 | 36358 ft | 456 kts | 185° |
| 2026-04-30 19:49 | 49.82251 | 9.02246 | 36361 ft | 456 kts | 185° |
| 2026-04-30 19:49 | 49.72807 | 9.00353 | 36359 ft | 456 kts | 184° |
| 2026-04-30 19:50 | 49.66513 | 8.99103 | 36355 ft | 456 kts | 184° |
| 2026-04-30 19:50 | 49.60233 | 8.97626 | 36355 ft | 457 kts | 187° |
| 2026-04-30 19:51 | 49.53982 | 8.95813 | 36350 ft | 457 kts | 188° |
| 2026-04-30 19:51 | 49.47732 | 8.93985 | 36342 ft | 457 kts | 187° |
| 2026-04-30 19:52 | 49.41528 | 8.92276 | 36335 ft | 456 kts | 187° |
| 2026-04-30 19:52 | 49.35264 | 8.90606 | 36336 ft | 456 kts | 187° |
| 2026-04-30 19:53 | 49.29001 | 8.88907 | 36336 ft | 457 kts | 187° |
| 2026-04-30 19:53 | 49.22746 | 8.87200 | 36332 ft | 457 kts | 187° |
| 2026-04-30 19:54 | 49.16483 | 8.85496 | 36333 ft | 457 kts | 187° |
| 2026-04-30 19:54 | 49.10221 | 8.83788 | 36328 ft | 457 kts | 187° |
| 2026-04-30 19:55 | 49.03954 | 8.82091 | 36321 ft | 457 kts | 187° |
| 2026-04-30 19:55 | 48.97688 | 8.80382 | 36318 ft | 458 kts | 187° |
| 2026-04-30 19:56 | 48.91414 | 8.78672 | 36313 ft | 458 kts | 187° |
| 2026-04-30 19:56 | 48.85136 | 8.76974 | 36315 ft | 458 kts | 187° |
| 2026-04-30 19:57 | 48.78853 | 8.75291 | 36317 ft | 460 kts | 187° |
| 2026-04-30 19:57 | 48.72493 | 8.73595 | 35719 ft | 466 kts | 187° |
| 2026-04-30 19:58 | 48.69310 | 8.72742 | 35100 ft | 463 kts | 187° |
| 2026-04-30 19:58 | 48.66170 | 8.71897 | 34485 ft | 453 kts | 187° |
| 2026-04-30 19:58 | 48.63089 | 8.71072 | 33784 ft | 446 kts | 187° |
| 2026-04-30 19:58 | 48.60058 | 8.70265 | 33086 ft | 439 kts | 187° |
| 2026-04-30 19:59 | 48.57069 | 8.69474 | 32413 ft | 433 kts | 186° |
| 2026-04-30 19:59 | 48.54114 | 8.68694 | 31765 ft | 428 kts | 186° |
| 2026-04-30 19:59 | 48.48281 | 8.67155 | 30538 ft | 422 kts | 186° |
| 2026-04-30 20:00 | 48.45396 | 8.66388 | 29855 ft | 419 kts | 186° |
| 2026-04-30 20:00 | 48.42542 | 8.65628 | 29191 ft | 416 kts | 186° |
| 2026-04-30 20:00 | 48.39704 | 8.64877 | 28520 ft | 412 kts | 186° |
| 2026-04-30 20:00 | 48.36888 | 8.64127 | 27880 ft | 409 kts | 187° |
| 2026-04-30 20:01 | 48.31346 | 8.62499 | 26661 ft | 403 kts | 188° |
| 2026-04-30 20:01 | 48.28602 | 8.61652 | 26072 ft | 400 kts | 188° |
| 2026-04-30 20:01 | 48.25892 | 8.60814 | 25503 ft | 396 kts | 188° |
| 2026-04-30 20:02 | 48.20540 | 8.59177 | 24429 ft | 388 kts | 188° |
| 2026-04-30 20:02 | 48.17914 | 8.58377 | 23968 ft | 382 kts | 188° |
| 2026-04-30 20:03 | 48.12766 | 8.56824 | 23109 ft | 374 kts | 188° |
| 2026-04-30 20:03 | 48.10225 | 8.56068 | 22687 ft | 372 kts | 188° |
| 2026-04-30 20:03 | 48.07690 | 8.55317 | 22261 ft | 370 kts | 188° |
| 2026-04-30 20:03 | 48.05175 | 8.54577 | 21849 ft | 367 kts | 188° |
| 2026-04-30 20:04 | 48.02677 | 8.53841 | 21439 ft | 365 kts | 188° |
| 2026-04-30 20:04 | 48.00191 | 8.53102 | 21032 ft | 363 kts | 188° |
| 2026-04-30 20:04 | 47.97721 | 8.52366 | 20633 ft | 361 kts | 188° |
| 2026-04-30 20:05 | 47.92824 | 8.50957 | 19852 ft | 356 kts | 186° |
| 2026-04-30 20:05 | 47.90385 | 8.50418 | 19469 ft | 354 kts | 184° |
| 2026-04-30 20:05 | 47.85521 | 8.49542 | 18718 ft | 351 kts | 183° |
| 2026-04-30 20:06 | 47.83101 | 8.49423 | 18303 ft | 345 kts | 172° |
| 2026-04-30 20:06 | 47.80754 | 8.50005 | 17870 ft | 340 kts | 160° |
| 2026-04-30 20:06 | 47.78589 | 8.51205 | 17457 ft | 334 kts | 151° |
| 2026-04-30 20:06 | 47.76456 | 8.52691 | 17027 ft | 333 kts | 151° |
| 2026-04-30 20:07 | 47.74386 | 8.54116 | 16627 ft | 332 kts | 152° |
| 2026-04-30 20:07 | 47.72258 | 8.55572 | 16207 ft | 331 kts | 152° |
| 2026-04-30 20:07 | 47.68138 | 8.58396 | 15608 ft | 324 kts | 152° |
| 2026-04-30 20:08 | 47.66107 | 8.59794 | 15365 ft | 320 kts | 152° |
| 2026-04-30 20:08 | 47.64097 | 8.61179 | 15121 ft | 318 kts | 152° |
| 2026-04-30 20:08 | 47.62096 | 8.62561 | 14876 ft | 316 kts | 152° |
| 2026-04-30 20:08 | 47.60104 | 8.63938 | 14637 ft | 315 kts | 152° |
| 2026-04-30 20:09 | 47.58126 | 8.65301 | 14402 ft | 314 kts | 152° |
| 2026-04-30 20:09 | 47.56149 | 8.66664 | 14161 ft | 312 kts | 152° |
| 2026-04-30 20:09 | 47.52244 | 8.69344 | 13645 ft | 310 kts | 152° |
| 2026-04-30 20:10 | 47.48534 | 8.71880 | 13136 ft | 307 kts | 152° |
| 2026-04-30 20:10 | 47.46598 | 8.73203 | 12884 ft | 306 kts | 153° |
| 2026-04-30 20:10 | 47.44671 | 8.74521 | 12626 ft | 305 kts | 153° |
| 2026-04-30 20:11 | 47.40846 | 8.77135 | 12089 ft | 300 kts | 153° |
| 2026-04-30 20:11 | 47.38977 | 8.78411 | 11761 ft | 291 kts | 153° |
| 2026-04-30 20:11 | 47.37174 | 8.79639 | 11439 ft | 280 kts | 153° |
| 2026-04-30 20:12 | 47.33776 | 8.81952 | 10810 ft | 259 kts | 153° |
| 2026-04-30 20:12 | 47.32144 | 8.83064 | 10471 ft | 259 kts | 153° |
| 2026-04-30 20:12 | 47.30496 | 8.84173 | 10058 ft | 262 kts | 156° |
| 2026-04-30 20:13 | 47.28698 | 8.84618 | 9619 ft | 266 kts | 185° |
| 2026-04-30 20:13 | 47.26956 | 8.83784 | 9243 ft | 266 kts | 212° |
| 2026-04-30 20:13 | 47.25677 | 8.81831 | 8818 ft | 268 kts | 241° |
| 2026-04-30 20:13 | 47.24869 | 8.79358 | 8402 ft | 269 kts | 245° |
| 2026-04-30 20:14 | 47.24309 | 8.76732 | 7968 ft | 270 kts | 262° |
| 2026-04-30 20:14 | 47.24304 | 8.74009 | 7523 ft | 271 kts | 278° |
| 2026-04-30 20:14 | 47.24865 | 8.71304 | 6797 ft | 284 kts | 296° |
| 2026-04-30 20:14 | 47.26044 | 8.68896 | 5963 ft | 298 kts | 316° |
| 2026-04-30 20:15 | 47.27768 | 8.67181 | 5316 ft | 301 kts | 337° |
| 2026-04-30 20:15 | 47.29673 | 8.65937 | 4739 ft | 292 kts | 337° |
| 2026-04-30 20:15 | 47.31414 | 8.64718 | 4396 ft | 261 kts | 338° |
| 2026-04-30 20:15 | 47.32953 | 8.63627 | 4208 ft | 231 kts | 338° |
| 2026-04-30 20:16 | 47.34313 | 8.62669 | 3914 ft | 203 kts | 340° |
| 2026-04-30 20:16 | 47.35148 | 8.62093 | 3657 ft | 190 kts | 341° |
| 2026-04-30 20:16 | 47.36295 | 8.61321 | 3290 ft | 173 kts | 342° |
| 2026-04-30 20:16 | 47.37619 | 8.60404 | 3206 ft | 148 kts | 343° |
| 2026-04-30 20:17 | 47.38523 | 8.59794 | 3006 ft | 140 kts | 344° |
| 2026-04-30 20:17 | 47.39417 | 8.59201 | 2795 ft | 142 kts | 343° |
| 2026-04-30 20:17 | 47.40309 | 8.58596 | 2515 ft | 141 kts | 341° |
| 2026-04-30 20:17 | 47.40910 | 8.58179 | 2297 ft | 142 kts | 339° |
| 2026-04-30 20:18 | 47.41799 | 8.57546 | 2019 ft | 141 kts | 340° |
| 2026-04-30 20:18 | 47.42692 | 8.56943 | 1950 ft | 142 kts | 340° |
| 2026-04-30 20:18 | 47.43583 | 8.56325 | 1739 ft | 141 kts | 341° |
| 2026-04-30 20:18 | 47.44464 | 8.55723 | 1552 ft | 141 kts | 338° |
| 2026-04-30 20:19 | 47.45352 | 8.55120 | 1400 ft | 135 kts | 338° |
| 2026-04-30 20:19 | 47.46009 | 8.54673 | 1389 ft | 63 kts | 336° |
| 2026-04-30 20:19 | 47.46271 | 8.54492 | 1385 ft | 37 kts | 336° |
| 2026-04-30 20:19 | 47.46409 | 8.54427 | 1383 ft | 12 kts | 20° |
| 2026-04-30 20:20 | 47.46463 | 8.54518 | 1380 ft | 12 kts | 62° |
| 2026-04-30 20:20 | 47.46465 | 8.54617 | 1383 ft | 10 kts | 133° |
| 2026-04-30 20:20 | 47.46414 | 8.54671 | 1384 ft | 9 kts | 160° |
| 2026-04-30 20:20 | 47.46359 | 8.54705 | 1381 ft | 8 kts | 152° |
| 2026-04-30 20:21 | 47.46314 | 8.54739 | 1384 ft | 6 kts | 155° |
| 2026-04-30 20:21 | 47.46286 | 8.54758 | 1385 ft | 3 kts | 155° |
| 2026-04-30 20:21 | 47.46255 | 8.54779 | 1385 ft | 14 kts | 154° |
| 2026-04-30 20:21 | 47.46132 | 8.54863 | 1387 ft | 21 kts | 155° |
| 2026-04-30 20:22 | 47.45998 | 8.54957 | 1394 ft | 21 kts | 154° |
| 2026-04-30 20:22 | 47.45865 | 8.55047 | 1400 ft | 21 kts | 156° |
| 2026-04-30 20:22 | 47.45726 | 8.55142 | 1397 ft | 22 kts | 154° |
| 2026-04-30 20:22 | 47.45585 | 8.55242 | 1405 ft | 22 kts | 154° |
| 2026-04-30 20:23 | 47.45442 | 8.55342 | 1404 ft | 23 kts | 154° |
| 2026-04-30 20:23 | 47.45311 | 8.55449 | 1402 ft | 19 kts | 123° |
| 2026-04-30 20:23 | 47.45273 | 8.55618 | 1406 ft | 17 kts | 96° |
| 2026-04-30 20:23 | 47.45262 | 8.55776 | 1407 ft | 12 kts | 97° |
| 2026-04-30 20:24 | 47.45266 | 8.55794 | 1407 ft | 3 kts | 52° |
| 2026-04-30 20:24 | 47.45311 | 8.55803 | 1407 ft | 7 kts | 5° |
| 2026-04-30 20:24 | 47.45336 | 8.55807 | 1412 ft | 2 kts | 6° |
| 2026-04-30 20:24 | 47.45337 | 8.55807 | 1411 ft | 0 kts | 6° |